Time;durP1;ratioP1;P1;durP2;ratioP2;P2;SDS_P1;SDS_P2;PMS_P1;PMS_P2;Temp;Humidity;BMP_temperature;BMP_pressure;BME280_temperature;BME280_humidity;BME280_pressure;Samples;Min_cycle;Max_cycle;Signal;HPM_P1;HPM_P2
2021/01/24 00:01:13;;;;;;;0.95;0.88;;;3.20;99.90;;;;;;1927706;74;21049;-75
2021/01/24 00:03:39;;;;;;;1.80;1.32;;;3.20;99.90;;;;;;1927665;74;21057;-74
2021/01/24 00:06:05;;;;;;;1.37;1.20;;;3.20;99.90;;;;;;1927688;74;21065;-76
2021/01/24 00:08:32;;;;;;;2.37;1.10;;;3.20;99.90;;;;;;1927808;74;21123;-75
2021/01/24 00:10:58;;;;;;;1.57;0.98;;;3.20;99.90;;;;;;1927678;74;21072;-75
2021/01/24 00:13:24;;;;;;;0.98;0.68;;;3.10;99.90;;;;;;1927755;74;21070;-75
2021/01/24 00:15:50;;;;;;;1.45;1.17;;;3.10;99.90;;;;;;1927561;74;21446;-76
2021/01/24 00:18:16;;;;;;;1.17;1.00;;;3.10;99.90;;;;;;1927567;74;21426;-75
2021/01/24 00:20:42;;;;;;;1.70;1.00;;;3.00;99.90;;;;;;1927548;74;21496;-75
2021/01/24 00:23:08;;;;;;;0.85;0.85;;;3.00;99.90;;;;;;1927801;74;21123;-76
2021/01/24 00:25:35;;;;;;;1.60;0.90;;;3.10;99.90;;;;;;1927599;74;21131;-73
2021/01/24 00:28:01;;;;;;;2.87;1.00;;;3.00;99.90;;;;;;1927819;74;21139;-75
2021/01/24 00:30:27;;;;;;;1.10;1.00;;;3.10;99.90;;;;;;1927586;74;21104;-75
2021/01/24 00:32:53;;;;;;;0.70;0.70;;;3.10;99.90;;;;;;1927785;74;21143;-74
2021/01/24 00:35:19;;;;;;;0.90;0.75;;;3.00;99.90;;;;;;1927597;74;21065;-74
2021/01/24 00:37:45;;;;;;;1.10;1.10;;;3.00;99.90;;;;;;1927807;74;21422;-74
2021/01/24 00:40:11;;;;;;;1.17;0.95;;;3.00;99.90;;;;;;1927816;74;21478;-74
2021/01/24 00:42:37;;;;;;;1.00;0.90;;;3.00;99.90;;;;;;1927787;74;21135;-73
2021/01/24 00:45:04;;;;;;;1.05;1.00;;;2.90;99.90;;;;;;1927838;74;21053;-74
2021/01/24 00:47:30;;;;;;;1.00;1.00;;;2.90;99.90;;;;;;1927843;74;21123;-73
2021/01/24 00:49:57;;;;;;;0.95;0.90;;;2.90;99.90;;;;;;1927803;74;21057;-74
2021/01/24 00:52:23;;;;;;;1.02;1.02;;;2.90;99.90;;;;;;1927784;74;21554;-74
2021/01/24 00:54:49;;;;;;;0.98;0.98;;;2.80;99.90;;;;;;1927793;74;21568;-74
2021/01/24 00:57:15;;;;;;;2.58;1.50;;;2.90;99.90;;;;;;1927812;74;21494;-74
2021/01/24 00:59:41;;;;;;;1.32;0.85;;;2.90;99.90;;;;;;1927819;74;21034;-74
2021/01/24 01:02:07;;;;;;;0.80;0.80;;;2.90;99.90;;;;;;1927820;74;21101;-74
2021/01/24 01:04:34;;;;;;;1.00;1.00;;;2.90;99.90;;;;;;1927812;74;21061;-74
2021/01/24 01:07:00;;;;;;;1.30;1.20;;;2.80;99.90;;;;;;1927897;74;21065;-74
2021/01/24 01:09:26;;;;;;;2.30;1.57;;;2.80;99.90;;;;;;1927645;74;21072;-73
2021/01/24 01:11:52;;;;;;;1.60;1.50;;;2.80;99.90;;;;;;1927802;74;21498;-74
2021/01/24 01:14:19;;;;;;;1.95;1.52;;;2.70;99.90;;;;;;1927810;74;21466;-74
2021/01/24 01:16:45;;;;;;;2.37;1.85;;;2.70;99.90;;;;;;1927822;74;21564;-74
2021/01/24 01:19:11;;;;;;;2.62;1.60;;;2.70;99.90;;;;;;1927994;74;21066;-75
2021/01/24 01:21:37;;;;;;;2.35;1.57;;;2.70;99.90;;;;;;1927785;74;21073;-75
2021/01/24 01:24:03;;;;;;;3.60;1.77;;;2.70;99.90;;;;;;1927922;74;21126;-75
2021/01/24 01:26:29;;;;;;;2.22;2.02;;;2.70;99.90;;;;;;1927722;74;21057;-75
2021/01/24 01:28:55;;;;;;;8.80;1.82;;;2.70;99.90;;;;;;1927819;74;21352;-75
2021/01/24 01:31:21;;;;;;;2.08;1.75;;;2.70;99.90;;;;;;1927788;74;21131;-75
2021/01/24 01:33:48;;;;;;;1.90;1.70;;;2.70;99.90;;;;;;1927806;74;21101;-74
2021/01/24 01:36:14;;;;;;;2.15;1.90;;;2.70;99.90;;;;;;1927807;74;21128;-75
2021/01/24 01:38:40;;;;;;;2.10;1.60;;;2.70;99.90;;;;;;1927902;74;21030;-74
2021/01/24 01:41:06;;;;;;;1.72;1.37;;;2.60;99.90;;;;;;1927676;74;21058;-75
2021/01/24 01:43:43;;;;;;;2.55;1.67;;;2.70;99.90;;;;;;1927931;74;21042;-77
2021/01/24 01:46:06;;;;;;;3.17;1.98;;;2.70;99.90;;;;;;1926977;74;21069;-74
2021/01/24 01:48:32;;;;;;;1.50;1.40;;;2.70;99.90;;;;;;1927625;74;21497;-74
2021/01/24 01:50:58;;;;;;;2.65;1.65;;;2.70;99.90;;;;;;1927683;74;21441;-74
2021/01/24 01:53:24;;;;;;;1.52;1.30;;;2.60;99.90;;;;;;1933039;73;21508;-74
2021/01/24 01:55:50;;;;;;;3.25;2.00;;;2.60;99.90;;;;;;1929286;74;21501;-74
2021/01/24 01:58:17;;;;;;;2.37;1.40;;;2.60;99.90;;;;;;1927851;74;21042;-74
2021/01/24 02:00:43;;;;;;;1.55;1.20;;;2.70;99.90;;;;;;1927761;74;21037;-73
2021/01/24 02:03:09;;;;;;;12.10;1.40;;;2.70;99.90;;;;;;1927731;74;21065;-74
2021/01/24 02:05:35;;;;;;;1.20;1.10;;;2.70;99.90;;;;;;1927756;74;21069;-74
2021/01/24 02:08:01;;;;;;;0.90;0.90;;;2.80;99.90;;;;;;1911193;74;21136;-74
2021/01/24 02:10:29;;;;;;;0.80;0.80;;;2.90;99.90;;;;;;1927116;74;21181;-74
2021/01/24 02:12:55;;;;;;;0.70;0.70;;;2.90;99.90;;;;;;1927760;74;21065;-74
2021/01/24 02:15:21;;;;;;;0.57;0.57;;;3.10;99.90;;;;;;1927886;74;21066;-74
2021/01/24 02:17:47;;;;;;;0.82;0.60;;;3.20;99.90;;;;;;1927952;74;21081;-74
2021/01/24 02:20:13;;;;;;;0.40;0.40;;;3.20;99.90;;;;;;1927889;74;21059;-76
2021/01/24 02:22:39;;;;;;;0.40;0.40;;;3.20;99.90;;;;;;1927776;74;21065;-75
2021/01/24 02:25:05;;;;;;;0.50;0.50;;;3.30;99.90;;;;;;1927771;74;21057;-75
2021/01/24 02:27:31;;;;;;;0.53;0.53;;;3.30;99.90;;;;;;1927769;74;21065;-76
2021/01/24 02:29:58;;;;;;;1.52;0.60;;;3.40;99.90;;;;;;1916068;74;21128;-74
2021/01/24 02:32:24;;;;;;;0.50;0.50;;;3.20;99.90;;;;;;1925003;74;21250;-76
2021/01/24 02:34:50;;;;;;;0.57;0.40;;;3.20;99.90;;;;;;1920204;74;21054;-74
2021/01/24 02:37:16;;;;;;;1.02;0.57;;;3.10;99.90;;;;;;1931556;74;21077;-74
2021/01/24 02:39:42;;;;;;;0.40;0.40;;;2.90;99.90;;;;;;1927813;74;21073;-74
2021/01/24 02:42:08;;;;;;;0.30;0.30;;;2.70;99.90;;;;;;1935385;74;21042;-74
2021/01/24 02:44:34;;;;;;;0.50;0.50;;;2.80;99.90;;;;;;1930058;74;21065;-74
2021/01/24 02:47:00;;;;;;;0.23;0.23;;;2.80;99.90;;;;;;1927541;74;21077;-75
2021/01/24 02:49:28;;;;;;;0.30;0.30;;;2.90;99.90;;;;;;1927843;74;21073;-74
2021/01/24 02:51:54;;;;;;;0.10;0.10;;;3.00;99.90;;;;;;1927857;74;21213;-75
2021/01/24 02:54:20;;;;;;;0.30;0.30;;;3.00;99.90;;;;;;1927941;74;21065;-75
2021/01/24 02:56:46;;;;;;;0.42;0.30;;;3.10;99.90;;;;;;1929651;74;21057;-74
2021/01/24 02:59:12;;;;;;;0.25;0.25;;;3.10;99.90;;;;;;1930839;74;21030;-74
2021/01/24 03:01:38;;;;;;;0.20;0.20;;;3.10;99.90;;;;;;1929870;74;21018;-73
2021/01/24 03:04:05;;;;;;;0.30;0.30;;;3.10;99.90;;;;;;1928263;74;21491;-73
2021/01/24 03:06:31;;;;;;;0.20;0.20;;;3.20;99.90;;;;;;1927993;74;21477;-73
2021/01/24 03:08:57;;;;;;;0.20;0.20;;;3.20;99.90;;;;;;1927879;74;21509;-74
2021/01/24 03:11:23;;;;;;;0.10;0.10;;;3.20;99.90;;;;;;1927732;74;21039;-73
2021/01/24 03:13:49;;;;;;;0.20;0.20;;;3.10;99.90;;;;;;1927746;74;21057;-73
2021/01/24 03:16:15;;;;;;;0.30;0.20;;;3.10;99.90;;;;;;1927771;74;21065;-73
2021/01/24 03:18:41;;;;;;;1.65;0.40;;;3.00;99.90;;;;;;1927710;74;21143;-73
2021/01/24 03:21:07;;;;;;;0.40;0.40;;;2.90;99.90;;;;;;1927757;74;21077;-73
2021/01/24 03:23:33;;;;;;;0.30;0.30;;;2.90;99.90;;;;;;1927882;74;21123;-73
2021/01/24 03:26:00;;;;;;;0.37;0.37;;;3.00;99.90;;;;;;1927860;74;21062;-73
2021/01/24 03:28:26;;;;;;;0.30;0.30;;;3.00;99.90;;;;;;1927853;74;21061;-73
2021/01/24 03:30:52;;;;;;;0.40;0.33;;;3.00;99.90;;;;;;1927720;74;21131;-73
2021/01/24 03:33:18;;;;;;;0.47;0.47;;;3.00;99.90;;;;;;1927768;74;21112;-73
2021/01/24 03:35:44;;;;;;;4.45;0.60;;;2.90;99.90;;;;;;1927838;74;21078;-73
2021/01/24 03:38:10;;;;;;;0.50;0.50;;;2.90;99.90;;;;;;1927736;74;21414;-74
2021/01/24 03:40:36;;;;;;;0.33;0.33;;;2.80;99.90;;;;;;1927847;74;21546;-73
2021/01/24 03:43:02;;;;;;;0.55;0.55;;;2.70;99.90;;;;;;1927622;74;21505;-73
2021/01/24 03:45:29;;;;;;;0.40;0.40;;;2.80;99.90;;;;;;1927863;74;21057;-73
2021/01/24 03:47:55;;;;;;;0.40;0.40;;;2.50;99.90;;;;;;1927618;74;21139;-74
2021/01/24 03:50:21;;;;;;;0.72;0.60;;;2.40;99.90;;;;;;1927849;74;21061;-73
2021/01/24 03:52:47;;;;;;;0.70;0.70;;;2.20;99.90;;;;;;1927651;74;21126;-73
2021/01/24 03:55:13;;;;;;;0.45;0.45;;;2.20;99.90;;;;;;1927632;74;21102;-74
2021/01/24 03:57:39;;;;;;;0.60;0.60;;;2.10;99.90;;;;;;1927711;74;21030;-73
2021/01/24 04:00:05;;;;;;;2.55;1.15;;;2.20;99.90;;;;;;1927736;74;21065;-73
2021/01/24 04:02:31;;;;;;;0.78;0.65;;;2.30;99.90;;;;;;1927757;74;21135;-73
2021/01/24 04:04:57;;;;;;;0.60;0.60;;;2.20;99.90;;;;;;1927774;74;21182;-73
2021/01/24 04:07:24;;;;;;;0.60;0.60;;;2.20;99.90;;;;;;1927602;74;21073;-73
2021/01/24 04:09:50;;;;;;;0.93;0.80;;;2.30;99.90;;;;;;1927812;74;21132;-73
2021/01/24 04:12:16;;;;;;;1.07;0.70;;;2.30;99.90;;;;;;1927744;74;21595;-74
2021/01/24 04:14:42;;;;;;;0.70;0.70;;;2.40;99.90;;;;;;1927756;74;21434;-74
2021/01/24 04:17:08;;;;;;;1.32;1.00;;;2.40;99.90;;;;;;1927936;74;21618;-74
2021/01/24 04:19:35;;;;;;;0.65;0.65;;;2.30;99.90;;;;;;1927733;74;21135;-74
2021/01/24 04:22:01;;;;;;;0.85;0.80;;;2.30;99.90;;;;;;1927949;74;21127;-73
2021/01/24 04:24:27;;;;;;;0.68;0.65;;;2.40;99.90;;;;;;1927849;74;21189;-73
2021/01/24 04:26:54;;;;;;;1.75;0.90;;;2.30;99.90;;;;;;1927839;74;21540;-74
2021/01/24 04:29:20;;;;;;;0.80;0.80;;;2.30;99.90;;;;;;1927852;74;21505;-74
2021/01/24 04:31:46;;;;;;;0.70;0.68;;;2.30;99.90;;;;;;1927968;74;21505;-73
2021/01/24 04:34:12;;;;;;;0.80;0.80;;;2.40;99.90;;;;;;1927753;74;21063;-74
2021/01/24 04:36:38;;;;;;;1.32;0.95;;;2.40;99.90;;;;;;1927901;74;21081;-73
2021/01/24 04:39:04;;;;;;;0.80;0.80;;;2.30;99.90;;;;;;1927699;74;21068;-74
2021/01/24 04:41:30;;;;;;;0.72;0.72;;;2.30;99.90;;;;;;1927922;74;21065;-74
2021/01/24 04:43:56;;;;;;;1.50;1.12;;;2.20;99.90;;;;;;1927734;74;21061;-73
2021/01/24 04:46:23;;;;;;;1.15;0.88;;;2.10;99.90;;;;;;1927855;74;21062;-73
2021/01/24 04:48:49;;;;;;;1.77;1.07;;;2.10;99.90;;;;;;1935021;74;21078;-73
2021/01/24 04:51:15;;;;;;;2.25;0.80;;;2.00;99.90;;;;;;1928461;74;21454;-74
2021/01/24 04:53:41;;;;;;;1.02;0.93;;;2.00;99.90;;;;;;1931936;74;21522;-73
2021/01/24 04:56:07;;;;;;;1.65;1.05;;;1.90;99.90;;;;;;1931053;74;21305;-74
2021/01/24 04:58:33;;;;;;;0.72;0.70;;;2.00;99.90;;;;;;1927680;74;21022;-73
2021/01/24 05:00:59;;;;;;;0.82;0.82;;;2.00;99.90;;;;;;1921319;74;21135;-72
2021/01/24 05:03:25;;;;;;;0.80;0.80;;;2.00;99.90;;;;;;1930003;74;21038;-74
2021/01/24 05:05:52;;;;;;;0.82;0.82;;;1.90;99.90;;;;;;1932509;74;21060;-73
2021/01/24 05:08:18;;;;;;;2.25;1.30;;;1.80;99.90;;;;;;1934578;74;21128;-73
2021/01/24 05:10:44;;;;;;;1.20;0.88;;;1.70;99.90;;;;;;1927900;74;21085;-73
2021/01/24 05:13:10;;;;;;;0.70;0.70;;;1.80;99.90;;;;;;1927838;74;21501;-73
2021/01/24 05:15:36;;;;;;;1.35;1.10;;;1.80;99.90;;;;;;1927814;74;21457;-73
2021/01/24 05:18:02;;;;;;;3.08;0.70;;;1.80;99.90;;;;;;1927808;74;21062;-74
2021/01/24 05:20:28;;;;;;;1.62;1.12;;;1.90;99.90;;;;;;1927947;74;21074;-73
2021/01/24 05:22:54;;;;;;;0.95;0.85;;;1.90;99.90;;;;;;1927897;74;21069;-74
2021/01/24 05:25:21;;;;;;;1.45;0.70;;;1.90;99.90;;;;;;1927913;74;21042;-74
2021/01/24 05:27:47;;;;;;;7.03;1.07;;;1.90;99.90;;;;;;1927818;74;21127;-74
2021/01/24 05:30:13;;;;;;;0.80;0.80;;;1.80;99.90;;;;;;1927813;74;21065;-73
2021/01/24 05:32:40;;;;;;;0.70;0.70;;;1.80;99.90;;;;;;1927821;74;21135;-74
2021/01/24 05:35:06;;;;;;;1.37;0.98;;;1.80;99.90;;;;;;1927929;74;21065;-73
2021/01/24 05:37:32;;;;;;;1.27;1.02;;;1.80;99.90;;;;;;1927694;74;21069;-74
2021/01/24 05:39:58;;;;;;;0.82;0.80;;;1.70;99.90;;;;;;1927756;74;21117;-73
2021/01/24 05:42:24;;;;;;;0.90;0.90;;;1.60;99.90;;;;;;1927795;74;21066;-73
2021/01/24 05:44:50;;;;;;;0.98;0.93;;;1.60;99.90;;;;;;1927813;74;21070;-73
2021/01/24 05:47:16;;;;;;;0.75;0.75;;;1.60;99.90;;;;;;1927933;74;21041;-73
2021/01/24 05:49:42;;;;;;;0.82;0.82;;;1.60;99.90;;;;;;1927804;74;21138;-73
2021/01/24 05:52:09;;;;;;;1.40;1.10;;;1.50;99.90;;;;;;1927914;74;21124;-74
2021/01/24 05:54:35;;;;;;;2.00;1.32;;;1.50;99.90;;;;;;1927798;74;21061;-74
2021/01/24 05:57:01;;;;;;;1.82;1.17;;;1.40;99.90;;;;;;1927796;74;21061;-73
2021/01/24 05:59:27;;;;;;;1.35;1.10;;;1.40;99.90;;;;;;1927792;74;21069;-73
2021/01/24 06:01:53;;;;;;;1.77;1.00;;;1.30;99.90;;;;;;1927905;74;21073;-73
2021/01/24 06:04:19;;;;;;;2.45;1.35;;;1.30;99.90;;;;;;1927931;74;21065;-74
2021/01/24 06:06:45;;;;;;;1.10;1.00;;;1.30;99.90;;;;;;1927908;74;21143;-73
2021/01/24 06:09:11;;;;;;;1.15;1.07;;;1.30;99.90;;;;;;1927921;74;21034;-74
2021/01/24 06:11:37;;;;;;;3.40;1.22;;;1.30;99.90;;;;;;1927700;74;21065;-74
2021/01/24 06:14:04;;;;;;;1.42;1.15;;;1.30;99.90;;;;;;1927899;74;21052;-73
2021/01/24 06:16:30;;;;;;;1.30;1.15;;;1.30;99.90;;;;;;1927912;74;21449;-73
2021/01/24 06:18:56;;;;;;;1.02;1.02;;;1.30;99.90;;;;;;1927833;74;21493;-73
2021/01/24 06:21:22;;;;;;;1.27;1.15;;;1.30;99.90;;;;;;1927763;74;21509;-73
2021/01/24 06:23:48;;;;;;;4.95;1.35;;;1.40;99.90;;;;;;1927707;74;21113;-73
2021/01/24 06:26:14;;;;;;;1.27;1.20;;;1.40;99.90;;;;;;1927780;74;21066;-73
2021/01/24 06:28:40;;;;;;;3.08;1.10;;;1.30;99.90;;;;;;1927801;74;21034;-73
2021/01/24 06:31:06;;;;;;;2.10;1.50;;;1.30;99.90;;;;;;1927780;74;21130;-73
2021/01/24 06:33:33;;;;;;;1.72;1.32;;;1.30;99.90;;;;;;1927767;74;21053;-74
2021/01/24 06:35:59;;;;;;;1.00;1.00;;;1.20;99.90;;;;;;1927879;74;21100;-74
2021/01/24 06:38:25;;;;;;;2.05;1.40;;;1.10;99.90;;;;;;1927871;74;21069;-73
2021/01/24 06:40:51;;;;;;;1.57;1.25;;;1.20;99.90;;;;;;1927778;74;21484;-73
2021/01/24 06:43:17;;;;;;;2.15;1.32;;;1.20;99.90;;;;;;1927771;74;21488;-74
2021/01/24 06:45:43;;;;;;;2.05;1.45;;;1.20;99.90;;;;;;1927756;74;21070;-74
2021/01/24 06:48:10;;;;;;;1.35;1.25;;;1.20;99.90;;;;;;1927782;74;21131;-73
2021/01/24 06:50:37;;;;;;;1.92;1.52;;;1.10;99.90;;;;;;1927870;74;21089;-75
2021/01/24 06:53:03;;;;;;;2.90;1.75;;;1.10;99.90;;;;;;1927792;74;21132;-75
2021/01/24 06:55:29;;;;;;;3.67;1.60;;;1.10;99.90;;;;;;1927778;74;21138;-74
2021/01/24 06:57:55;;;;;;;2.72;1.10;;;1.10;99.90;;;;;;1927777;74;21074;-75
2021/01/24 07:00:21;;;;;;;2.08;1.30;;;1.10;99.90;;;;;;1927692;74;21078;-72
2021/01/24 07:02:47;;;;;;;3.47;1.22;;;1.10;99.90;;;;;;1927771;74;21088;-72
2021/01/24 07:05:13;;;;;;;1.40;1.30;;;1.10;99.90;;;;;;1926063;74;21542;-74
2021/01/24 07:07:40;;;;;;;1.67;1.30;;;1.10;99.90;;;;;;1926037;74;21476;-74
2021/01/24 07:10:06;;;;;;;3.42;1.27;;;1.20;99.90;;;;;;1927871;74;21131;-74
2021/01/24 07:12:32;;;;;;;3.20;1.40;;;1.20;99.90;;;;;;1927992;74;21069;-74
2021/01/24 07:14:58;;;;;;;1.87;1.37;;;1.20;99.90;;;;;;1927824;74;21108;-74
2021/01/24 07:17:24;;;;;;;4.30;1.43;;;1.30;99.90;;;;;;1927867;74;21555;-74
2021/01/24 07:19:50;;;;;;;6.35;1.02;;;1.30;99.90;;;;;;1927711;74;21516;-73
2021/01/24 07:22:17;;;;;;;2.27;1.65;;;1.30;99.90;;;;;;1928044;74;21139;-72
2021/01/24 07:24:43;;;;;;;1.45;1.25;;;1.20;99.90;;;;;;1928208;74;21053;-73
2021/01/24 07:27:09;;;;;;;1.40;1.30;;;1.20;99.90;;;;;;1928801;74;21081;-72
2021/01/24 07:29:35;;;;;;;5.53;1.20;;;1.20;99.90;;;;;;1925140;74;21049;-73
2021/01/24 07:32:01;;;;;;;1.92;1.20;;;1.10;99.90;;;;;;1927981;74;21069;-73
2021/01/24 07:34:27;;;;;;;3.10;1.90;;;1.10;99.90;;;;;;1927550;74;21069;-72
2021/01/24 07:36:53;;;;;;;1.60;1.50;;;1.10;99.90;;;;;;1927339;74;21073;-73
2021/01/24 07:39:19;;;;;;;3.60;1.67;;;1.10;99.90;;;;;;1927351;74;21069;-73
2021/01/24 07:41:46;;;;;;;1.62;1.52;;;1.10;99.90;;;;;;1934291;74;21080;-72
2021/01/24 07:44:13;;;;;;;2.15;1.40;;;1.10;99.90;;;;;;1927144;74;21142;-73
2021/01/24 07:46:39;;;;;;;1.62;1.20;;;1.20;99.90;;;;;;1916718;74;21120;-74
2021/01/24 07:49:07;;;;;;;1.52;1.42;;;1.20;99.90;;;;;;1930854;74;21049;-72
2021/01/24 07:51:33;;;;;;;2.55;1.37;;;1.20;99.90;;;;;;1927266;74;21038;-75
2021/01/24 07:53:59;;;;;;;1.92;1.42;;;1.30;99.90;;;;;;1930470;74;21202;-74
2021/01/24 07:56:25;;;;;;;1.00;1.00;;;1.20;99.90;;;;;;1927706;74;21063;-74
2021/01/24 07:58:51;;;;;;;2.75;1.50;;;1.20;99.90;;;;;;1944849;74;21130;-73
2021/01/24 08:01:17;;;;;;;4.25;1.40;;;1.10;99.90;;;;;;1927340;74;21123;-73
2021/01/24 08:03:43;;;;;;;2.17;1.20;;;1.20;99.90;;;;;;1927457;74;21132;-73
2021/01/24 08:06:09;;;;;;;1.57;1.00;;;1.30;99.90;;;;;;1927436;74;21038;-73
2021/01/24 08:08:35;;;;;;;3.40;1.52;;;1.40;99.90;;;;;;1927458;74;21041;-74
2021/01/24 08:11:02;;;;;;;2.17;0.95;;;1.40;99.90;;;;;;1927223;74;21057;-73
2021/01/24 08:13:28;;;;;;;1.22;1.10;;;1.50;99.90;;;;;;1927235;74;21138;-73
2021/01/24 08:15:54;;;;;;;3.25;1.62;;;1.60;99.90;;;;;;1927187;74;21077;-74
2021/01/24 08:18:20;;;;;;;0.98;0.98;;;1.60;99.90;;;;;;1927287;74;21449;-72
2021/01/24 08:20:46;;;;;;;1.32;1.22;;;1.70;99.90;;;;;;1927176;74;21536;-71
2021/01/24 08:23:12;;;;;;;2.52;1.25;;;1.70;99.90;;;;;;1927201;74;21543;-71
2021/01/24 08:25:38;;;;;;;1.10;1.00;;;1.70;99.90;;;;;;1927306;74;21105;-73
2021/01/24 08:28:05;;;;;;;1.62;1.07;;;1.80;99.90;;;;;;1927300;74;21034;-75
2021/01/24 08:30:31;;;;;;;1.32;1.00;;;1.90;99.90;;;;;;1928531;74;21130;-73
2021/01/24 08:32:57;;;;;;;2.25;1.05;;;1.80;99.90;;;;;;1928465;74;21069;-71
2021/01/24 08:35:23;;;;;;;2.25;1.40;;;1.70;99.90;;;;;;1927555;74;21073;-75
2021/01/24 08:37:49;;;;;;;1.50;1.17;;;1.70;99.90;;;;;;1927535;74;21206;-75
2021/01/24 08:40:15;;;;;;;1.27;1.10;;;1.60;99.90;;;;;;1927334;74;21497;-75
2021/01/24 08:42:41;;;;;;;1.05;1.02;;;1.80;99.90;;;;;;1927182;74;21485;-75
2021/01/24 08:45:08;;;;;;;2.08;1.50;;;1.70;99.90;;;;;;1927451;74;21476;-76
2021/01/24 08:47:35;;;;;;;2.30;1.42;;;1.80;99.90;;;;;;1927145;74;21049;-76
2021/01/24 08:50:01;;;;;;;4.03;1.12;;;1.80;99.90;;;;;;1927247;74;21042;-76
2021/01/24 08:52:27;;;;;;;2.58;1.40;;;2.00;99.90;;;;;;1927263;74;21131;-75
2021/01/24 08:54:53;;;;;;;0.93;0.90;;;2.10;99.90;;;;;;1927260;74;21166;-75
2021/01/24 08:57:19;;;;;;;1.17;1.07;;;2.10;99.90;;;;;;1927208;74;21489;-74
2021/01/24 08:59:45;;;;;;;3.02;1.50;;;2.20;99.90;;;;;;1927095;74;21492;-75
2021/01/24 09:02:11;;;;;;;0.95;0.85;;;2.30;99.90;;;;;;1927301;74;21068;-75
2021/01/24 09:04:37;;;;;;;7.60;1.10;;;2.50;99.90;;;;;;1927166;74;21136;-74
2021/01/24 09:07:04;;;;;;;4.35;1.10;;;2.90;99.90;;;;;;1927236;74;21042;-75
2021/01/24 09:09:30;;;;;;;1.55;1.10;;;3.10;99.90;;;;;;1927150;74;21131;-75
2021/01/24 09:11:56;;;;;;;5.97;1.30;;;3.10;99.90;;;;;;1927322;74;21077;-74
2021/01/24 09:14:22;;;;;;;6.35;1.10;;;2.70;99.90;;;;;;1927184;74;21029;-75
2021/01/24 09:16:48;;;;;;;1.15;1.00;;;2.60;99.90;;;;;;1927350;74;21135;-74
2021/01/24 09:19:14;;;;;;;1.05;0.95;;;2.30;99.90;;;;;;1927234;74;21143;-75
2021/01/24 09:21:40;;;;;;;1.32;1.22;;;2.30;99.90;;;;;;1927254;74;21160;-74
2021/01/24 09:24:06;;;;;;;3.65;0.90;;;2.40;99.90;;;;;;1927177;74;21042;-74
2021/01/24 09:26:33;;;;;;;3.95;0.93;;;2.30;99.90;;;;;;1927348;74;21064;-74
2021/01/24 09:28:59;;;;;;;4.65;0.80;;;2.30;99.90;;;;;;1927235;74;21438;-73
2021/01/24 09:31:25;;;;;;;2.55;1.02;;;2.30;99.90;;;;;;1927058;74;21461;-73
2021/01/24 09:33:51;;;;;;;2.80;1.07;;;2.40;99.90;;;;;;1927215;74;21546;-74
2021/01/24 09:36:17;;;;;;;0.80;0.80;;;2.40;99.90;;;;;;1927288;74;21143;-74
2021/01/24 09:38:43;;;;;;;1.45;1.22;;;2.40;99.90;;;;;;1927078;74;21068;-75
2021/01/24 09:41:09;;;;;;;10.72;1.05;;;2.40;99.90;;;;;;1927249;74;21183;-75
2021/01/24 09:43:35;;;;;;;2.55;0.90;;;2.30;99.90;;;;;;1927088;74;21034;-75
2021/01/24 09:46:01;;;;;;;1.25;0.90;;;2.30;99.90;;;;;;1920935;74;21077;-73
2021/01/24 09:48:28;;;;;;;1.10;0.98;;;2.10;99.90;;;;;;1927069;74;21073;-74
2021/01/24 09:50:54;;;;;;;1.90;1.37;;;2.10;99.90;;;;;;1927272;74;21073;-75
2021/01/24 09:53:20;;;;;;;3.80;1.20;;;2.10;99.90;;;;;;1927251;74;21116;-74
2021/01/24 09:55:46;;;;;;;2.50;1.55;;;2.10;99.90;;;;;;1927250;74;21077;-73
2021/01/24 09:58:12;;;;;;;3.20;1.07;;;2.00;99.90;;;;;;1927195;74;21089;-74
2021/01/24 10:00:38;;;;;;;2.92;0.98;;;2.10;99.90;;;;;;1919688;74;21038;-73
2021/01/24 10:03:04;;;;;;;1.50;0.95;;;2.10;99.90;;;;;;1923726;74;21512;-74
2021/01/24 10:05:30;;;;;;;1.30;1.20;;;2.10;99.90;;;;;;1927281;74;21406;-74
2021/01/24 10:07:57;;;;;;;5.75;1.12;;;2.10;99.90;;;;;;1939888;74;21580;-74
2021/01/24 10:10:23;;;;;;;1.80;1.32;;;2.30;99.90;;;;;;1932513;74;21061;-75
2021/01/24 10:12:49;;;;;;;1.67;1.10;;;2.50;99.90;;;;;;1938128;74;21152;-73
2021/01/24 10:15:15;;;;;;;3.85;0.80;;;2.70;99.90;;;;;;1930444;74;21072;-76
2021/01/24 10:17:41;;;;;;;1.20;1.02;;;2.80;99.90;;;;;;1927274;74;21034;-75
2021/01/24 10:20:07;;;;;;;0.80;0.80;;;2.80;99.90;;;;;;1934577;74;21054;-76
2021/01/24 10:22:33;;;;;;;2.27;1.27;;;2.90;99.90;;;;;;1927791;74;21130;-76
2021/01/24 10:24:59;;;;;;;1.30;1.20;;;3.00;99.90;;;;;;1930490;74;21112;-76
2021/01/24 10:27:26;;;;;;;1.17;1.07;;;3.20;99.90;;;;;;1927363;74;21123;-74
2021/01/24 10:29:52;;;;;;;1.20;1.10;;;3.00;99.90;;;;;;1927244;74;21065;-74
2021/01/24 10:32:18;;;;;;;1.95;0.93;;;3.20;99.90;;;;;;1927224;74;21142;-75
2021/01/24 10:34:44;;;;;;;6.53;1.37;;;3.30;99.90;;;;;;1927222;74;21139;-76
2021/01/24 10:37:10;;;;;;;2.10;0.80;;;3.30;99.90;;;;;;1927174;74;21437;-75
2021/01/24 10:39:36;;;;;;;0.95;0.80;;;3.10;99.90;;;;;;1927302;74;21554;-78
2021/01/24 10:42:02;;;;;;;2.20;1.10;;;3.20;99.90;;;;;;1927203;74;21562;-77
2021/01/24 10:44:28;;;;;;;1.10;0.82;;;3.10;99.90;;;;;;1927532;74;21060;-76
2021/01/24 10:46:54;;;;;;;3.05;1.10;;;3.10;99.90;;;;;;1927353;74;21130;-76
2021/01/24 10:49:21;;;;;;;0.80;0.80;;;3.20;99.90;;;;;;1927277;74;21057;-78
2021/01/24 10:51:47;;;;;;;2.00;0.90;;;3.40;99.90;;;;;;1927527;74;21209;-78
2021/01/24 10:54:13;;;;;;;1.20;0.75;;;3.60;99.90;;;;;;1927624;74;20999;-75
2021/01/24 10:56:39;;;;;;;0.93;0.72;;;3.70;99.90;;;;;;1927865;74;21146;-78
2021/01/24 10:59:08;;;;;;;0.70;0.70;;;3.90;99.90;;;;;;1927672;74;21033;-77
2021/01/24 11:01:34;;;;;;;0.60;0.60;;;4.00;99.90;;;;;;1927234;74;21065;-78
2021/01/24 11:04:01;;;;;;;1.35;0.62;;;4.00;99.90;;;;;;1927515;74;21143;-76
2021/01/24 11:06:27;;;;;;;1.00;0.80;;;4.20;99.90;;;;;;1927633;74;21038;-76
2021/01/24 11:08:53;;;;;;;0.80;0.80;;;4.40;99.90;;;;;;1927487;74;21065;-77
2021/01/24 11:11:20;;;;;;;2.65;0.90;;;4.80;99.90;;;;;;1927579;74;21088;-72
2021/01/24 11:13:46;;;;;;;1.45;0.90;;;5.00;99.90;;;;;;1927510;74;21072;-74
2021/01/24 11:16:12;;;;;;;0.72;0.72;;;4.90;99.90;;;;;;1927736;74;21138;-74
2021/01/24 11:18:39;;;;;;;0.72;0.57;;;4.60;99.90;;;;;;1927665;74;21441;-74
2021/01/24 11:21:05;;;;;;;2.12;0.80;;;4.70;99.90;;;;;;1927495;74;21493;-75
2021/01/24 11:23:31;;;;;;;0.88;0.68;;;5.20;99.90;;;;;;1927550;74;21481;-75
2021/01/24 11:25:57;;;;;;;3.10;0.62;;;5.00;99.90;;;;;;1927706;74;21034;-75
2021/01/24 11:28:23;;;;;;;0.57;0.57;;;4.40;99.90;;;;;;1927591;74;21034;-75
2021/01/24 11:30:49;;;;;;;5.53;0.70;;;4.40;99.90;;;;;;1927578;74;21107;-74
2021/01/24 11:33:15;;;;;;;5.35;0.75;;;4.20;99.90;;;;;;1927420;74;21026;-74
2021/01/24 11:35:41;;;;;;;0.42;0.42;;;4.00;99.90;;;;;;1929110;74;21057;-73
2021/01/24 11:38:07;;;;;;;12.43;0.60;;;4.10;99.90;;;;;;1929821;74;21079;-74
2021/01/24 11:40:34;;;;;;;1.22;0.70;;;4.00;99.90;;;;;;1928565;74;21006;-74
2021/01/24 11:43:00;;;;;;;0.68;0.65;;;3.90;99.90;;;;;;1928614;74;21069;-74
2021/01/24 11:45:28;;;;;;;0.82;0.72;;;3.70;99.90;;;;;;1928236;74;21115;-76
2021/01/24 11:47:55;;;;;;;2.00;0.90;;;3.80;99.90;;;;;;1928065;74;21077;-74
2021/01/24 11:50:21;;;;;;;1.00;0.78;;;3.90;99.90;;;;;;1927927;74;21081;-75
2021/01/24 11:52:47;;;;;;;1.00;0.82;;;4.10;99.90;;;;;;1927875;74;21469;-76
2021/01/24 11:55:14;;;;;;;2.65;0.75;;;4.00;99.90;;;;;;1927528;74;21029;-75
2021/01/24 11:57:40;;;;;;;1.60;0.93;;;3.80;99.90;;;;;;1927186;74;21147;-73
2021/01/24 12:00:06;;;;;;;2.12;0.68;;;3.90;99.90;;;;;;1927336;74;21569;-75
2021/01/24 12:02:32;;;;;;;5.20;0.68;;;3.90;99.90;;;;;;1930096;73;21111;-75
2021/01/24 12:04:58;;;;;;;1.60;0.93;;;3.90;99.90;;;;;;1942843;74;21065;-76
2021/01/24 12:07:24;;;;;;;0.65;0.60;;;3.90;99.90;;;;;;1934841;73;21088;-80
2021/01/24 12:09:50;;;;;;;0.62;0.47;;;4.00;99.90;;;;;;1927888;74;21116;-78
2021/01/24 12:12:16;;;;;;;1.10;0.80;;;4.00;99.90;;;;;;1930764;74;21146;-79
2021/01/24 12:14:45;;;;;;;5.47;0.75;;;4.10;99.90;;;;;;1931191;74;21154;-80
2021/01/24 12:17:11;;;;;;;0.95;0.70;;;4.00;99.90;;;;;;1941933;74;21038;-79
2021/01/24 12:19:38;;;;;;;1.22;0.80;;;4.00;99.90;;;;;;1930570;74;21138;-78
2021/01/24 12:22:04;;;;;;;1.70;0.70;;;4.20;99.90;;;;;;1927625;74;21034;-78
2021/01/24 12:24:30;;;;;;;0.88;0.50;;;4.10;99.90;;;;;;1927474;74;21105;-74
2021/01/24 12:26:56;;;;;;;0.80;0.80;;;4.20;99.90;;;;;;1927542;74;21069;-78
2021/01/24 12:29:22;;;;;;;0.68;0.68;;;4.60;99.90;;;;;;1927382;74;21069;-77
2021/01/24 12:31:48;;;;;;;1.52;0.60;;;4.40;99.90;;;;;;1927431;74;21135;-78
2021/01/24 12:34:14;;;;;;;0.75;0.60;;;4.30;99.90;;;;;;1927570;74;21061;-76
2021/01/24 12:36:40;;;;;;;16.93;0.78;;;4.30;99.90;;;;;;1927609;74;21077;-73
2021/01/24 12:39:07;;;;;;;0.57;0.57;;;4.70;99.90;;;;;;1927658;74;21061;-74
2021/01/24 12:41:33;;;;;;;0.78;0.60;;;5.00;99.90;;;;;;1927592;74;21030;-75
2021/01/24 12:43:59;;;;;;;1.27;0.68;;;5.20;99.90;;;;;;1927722;74;21311;-74
2021/01/24 12:46:25;;;;;;;0.65;0.65;;;5.50;99.90;;;;;;1927710;74;21065;-73
2021/01/24 12:48:52;;;;;;;4.55;1.00;;;5.40;99.90;;;;;;1927637;74;21143;-74
2021/01/24 12:51:18;;;;;;;0.53;0.53;;;5.40;99.90;;;;;;1927677;74;21138;-73